Time;durP1;ratioP1;P1;durP2;ratioP2;P2;SDS_P1;SDS_P2;PMS_P1;PMS_P2;Temp;Humidity;BMP_temperature;BMP_pressure;BME280_temperature;BME280_humidity;BME280_pressure;Samples;Min_cycle;Max_cycle;Signal;HPM_P1;HPM_P2
2022/04/10 00:00:17;;;;;;;;;23.75;23.25;;;;;11.15;46.88;101511.09;2105220;28;47566;-52
2022/04/10 00:01:18;;;;;;;;;21.25;20.50;;;;;11.14;46.72;101515.53;2096165;28;47488;-51
2022/04/10 00:02:18;;;;;;;;;19.50;18.00;;;;;11.14;46.83;101518.19;2090798;28;47700;-53
2022/04/10 00:03:19;;;;;;;;;23.25;20.25;;;;;11.14;46.76;101518.19;2101735;27;47652;-52
2022/04/10 00:04:20;;;;;;;;;21.60;20.60;;;;;11.12;46.71;101517.31;2105275;28;47888;-53
2022/04/10 00:05:20;;;;;;;;;19.00;19.00;;;;;11.12;46.90;101517.31;2105577;28;48171;-52
2022/04/10 00:06:21;;;;;;;;;16.25;16.25;;;;;11.11;46.90;101512.03;2105049;28;47543;-53
2022/04/10 00:07:21;;;;;;;;;18.50;17.25;;;;;11.10;47.03;101513.81;2105230;28;47824;-53
2022/04/10 00:08:22;;;;;;;;;19.50;18.50;;;;;11.11;46.98;101517.34;2105270;28;48034;-55
2022/04/10 00:09:22;;;;;;;;;20.50;20.50;;;;;11.11;46.91;101512.03;2105161;27;47635;-52
2022/04/10 00:10:22;;;;;;;;;15.00;12.50;;;;;11.11;47.08;101514.69;2101859;28;47644;-51
2022/04/10 00:11:23;;;;;;;;;20.75;16.75;;;;;11.11;46.76;101517.34;2105184;28;47375;-52
2022/04/10 00:12:23;;;;;;;;;15.75;15.75;;;;;11.09;47.01;101505.88;2108221;27;47378;-52
2022/04/10 00:13:24;;;;;;;;;17.75;15.00;;;;;11.08;47.01;101512.09;2104715;27;47265;-53
2022/04/10 00:14:24;;;;;;;;;17.75;17.75;;;;;11.07;46.79;101510.31;2111526;27;47342;-51
2022/04/10 00:15:25;;;;;;;;;15.25;14.75;;;;;11.05;46.83;101499.72;2105340;28;47555;-51
2022/04/10 00:16:25;;;;;;;;;17.25;16.75;;;;;11.05;46.89;101501.47;2105182;28;47514;-53
2022/04/10 00:17:26;;;;;;;;;15.50;15.50;;;;;11.03;47.18;101497.94;2105014;28;47983;-53
2022/04/10 00:18:26;;;;;;;;;16.25;16.25;;;;;11.02;47.02;101496.19;2095051;28;47565;-50
2022/04/10 00:19:26;;;;;;;;;19.25;17.00;;;;;11.01;46.94;101494.44;2096055;28;47526;-51
2022/04/10 00:20:27;;;;;;;;;20.00;16.00;;;;;11.00;47.16;101498.00;2096806;28;48168;-52
2022/04/10 00:21:28;;;;;;;;;16.75;16.00;;;;;11.00;47.05;101498.00;2096684;28;47090;-52
2022/04/10 00:22:28;;;;;;;;;15.50;15.50;;;;;10.98;47.08;101498.00;2096742;28;47450;-51
2022/04/10 00:23:28;;;;;;;;;17.00;15.50;;;;;10.98;47.06;101502.44;2087872;28;46558;-54
2022/04/10 00:24:29;;;;;;;;;17.00;15.50;;;;;10.97;47.08;101501.56;2092869;28;48224;-50
2022/04/10 00:25:29;;;;;;;;;19.25;18.00;;;;;10.97;47.15;101503.34;2105407;28;47345;-52
2022/04/10 00:26:30;;;;;;;;;18.00;15.25;;;;;10.97;47.03;101498.03;2105229;28;48064;-52
2022/04/10 00:27:30;;;;;;;;;13.50;12.50;;;;;10.96;47.15;101504.25;2086257;28;47383;-51
2022/04/10 00:28:31;;;;;;;;;14.00;14.00;;;;;10.95;47.23;101498.06;2087076;28;47918;-54
2022/04/10 00:29:31;;;;;;;;;16.25;16.25;;;;;10.95;47.48;101502.47;2105696;28;47815;-54
2022/04/10 00:30:32;;;;;;;;;17.75;17.75;;;;;10.93;47.35;101502.50;2103879;28;47722;-53
2022/04/10 00:31:32;;;;;;;;;19.50;19.50;;;;;10.91;47.43;101502.50;2095287;28;47389;-54
2022/04/10 00:32:33;;;;;;;;;14.25;14.25;;;;;10.92;47.51;101498.06;2095469;28;47806;-49
2022/04/10 00:33:33;;;;;;;;;15.25;15.25;;;;;10.91;47.25;101504.28;2097193;28;47550;-53
2022/04/10 00:34:34;;;;;;;;;13.25;12.75;;;;;10.91;47.44;101498.97;2104345;28;47929;-52
2022/04/10 00:35:34;;;;;;;;;17.00;17.00;;;;;10.91;47.41;101498.97;2105037;28;47480;-53
2022/04/10 00:36:35;;;;;;;;;15.50;15.25;;;;;10.90;47.36;101503.41;2095330;28;47743;-54
2022/04/10 00:37:37;;;;;;;;;21.25;18.25;;;;;10.90;47.64;101497.19;2095428;28;47957;-53
2022/04/10 00:38:37;;;;;;;;;18.00;18.00;;;;;10.89;47.33;101498.97;2105003;28;47596;-52
2022/04/10 00:39:38;;;;;;;;;15.00;15.00;;;;;10.87;47.13;101503.44;2105274;28;47866;-56
2022/04/10 00:40:38;;;;;;;;;20.75;15.00;;;;;10.87;47.58;101502.56;2105258;28;47930;-51
2022/04/10 00:41:39;;;;;;;;;19.75;17.50;;;;;10.86;47.16;101501.69;2105173;28;48202;-54
2022/04/10 00:42:45;;;;;;;;;10.75;9.75;;;;;10.87;47.22;101494.59;2097161;28;47758;-54
2022/04/10 00:44:09;;;;;;;;;15.80;15.20;;;;;10.86;47.22;101495.50;2103100;27;47622;-54
2022/04/10 00:45:10;;;;;;;;;12.60;12.60;;;;;10.85;47.01;101497.25;2098140;28;48256;-52
2022/04/10 00:46:10;;;;;;;;;15.00;13.25;;;;;10.84;47.32;101500.81;2104544;28;48337;-53
2022/04/10 00:47:10;;;;;;;;;15.50;15.00;;;;;10.85;47.47;101504.34;2104940;28;47325;-50
2022/04/10 00:48:11;;;;;;;;;18.00;16.75;;;;;10.84;47.35;101499.94;2104144;27;47479;-56
2022/04/10 00:49:11;;;;;;;;;15.50;15.50;;;;;10.82;47.77;101499.97;2105109;28;48002;-55
2022/04/10 00:50:13;;;;;;;;;17.75;17.25;;;;;10.82;47.05;101501.72;2104898;28;47689;-50
2022/04/10 00:52:35;;;;;;;;;15.40;14.00;;;;;10.81;47.34;101495.53;2094618;28;47734;-51
2022/04/10 00:53:37;;;;;;;;;16.00;14.20;;;;;10.80;47.37;101493.78;2104443;27;47781;-55
2022/04/10 00:54:38;;;;;;;;;16.40;16.40;;;;;10.79;47.59;101499.97;2104875;28;48227;-53
2022/04/10 00:55:39;;;;;;;;;20.20;19.20;;;;;10.79;47.43;101491.13;2104875;27;47775;-53
2022/04/10 00:56:40;;;;;;;;;16.25;16.25;;;;;10.79;47.17;101497.31;2105000;28;47411;-51
2022/04/10 00:57:41;;;;;;;;;17.00;17.00;;;;;10.78;47.43;101498.22;2104713;28;48050;-53
2022/04/10 00:58:41;;;;;;;;;20.50;20.00;;;;;10.78;47.26;101495.56;2104993;28;47416;-53
2022/04/10 00:59:41;;;;;;;;;19.00;19.00;;;;;10.79;47.19;101493.78;2107228;27;47467;-52
2022/04/10 01:00:42;;;;;;;;;20.75;20.75;;;;;10.80;47.45;101499.09;2100141;27;45888;-52
2022/04/10 01:01:45;;;;;;;;;18.00;17.00;;;;;10.81;47.19;101499.97;2104058;28;47566;-53
2022/04/10 01:02:46;;;;;;;;;17.20;17.20;;;;;10.79;47.45;101497.31;2104917;28;47601;-54
2022/04/10 01:03:46;;;;;;;;;20.00;19.75;;;;;10.79;47.51;101501.75;2098758;28;47336;-49
2022/04/10 01:04:47;;;;;;;;;15.00;15.00;;;;;10.77;47.48;101499.09;2096685;28;48024;-55
2022/04/10 01:05:47;;;;;;;;;23.00;20.50;;;;;10.78;47.40;101497.31;2096393;28;47743;-49
2022/04/10 01:06:50;;;;;;;;;17.00;17.00;;;;;10.77;47.58;101496.44;2096509;28;48162;-52
2022/04/10 01:07:51;;;;;;;;;17.00;17.00;;;;;10.77;47.39;101498.22;2096542;28;47701;-51
2022/04/10 01:08:52;;;;;;;;;17.25;17.25;;;;;10.75;47.49;101495.59;2096055;28;47656;-54
2022/04/10 01:09:52;;;;;;;;;14.25;14.25;;;;;10.75;47.53;101494.72;2096667;28;47504;-51
2022/04/10 01:10:53;;;;;;;;;20.25;19.00;;;;;10.73;47.47;101497.38;2096334;28;47798;-51
2022/04/10 01:11:54;;;;;;;;;15.25;15.00;;;;;10.74;47.35;101500.91;2103327;27;47864;-51
2022/04/10 01:12:55;;;;;;;;;17.25;17.25;;;;;10.74;47.64;101500.91;2104723;28;47837;-52
2022/04/10 01:13:56;;;;;;;;;16.75;16.50;;;;;10.73;47.47;101505.34;2112685;27;47859;-54
2022/04/10 01:14:56;;;;;;;;;16.20;16.20;;;;;10.73;47.61;101493.84;2108830;27;47406;-52
2022/04/10 01:15:57;;;;;;;;;20.00;17.25;;;;;10.71;47.50;101496.53;2105169;28;48184;-55
2022/04/10 01:16:57;;;;;;;;;22.00;20.75;;;;;10.71;47.87;101498.31;2097024;28;47604;-52
2022/04/10 01:17:58;;;;;;;;;21.50;18.75;;;;;10.70;47.62;101501.84;2098384;28;48127;-50
2022/04/10 01:19:01;;;;;;;;;13.75;13.75;;;;;10.68;47.71;101498.34;2104849;28;46445;-52
2022/04/10 01:20:03;;;;;;;;;15.80;15.40;;;;;10.65;47.92;101501.88;2104870;28;47846;-53
2022/04/10 01:21:04;;;;;;;;;18.60;17.20;;;;;10.65;48.10;101499.22;2104732;28;48010;-51
2022/04/10 01:22:05;;;;;;;;;18.75;16.75;;;;;10.65;47.97;101504.53;2105236;28;47542;-55
2022/04/10 01:23:07;;;;;;;;;19.80;13.60;;;;;10.64;47.70;101499.25;2073086;28;47730;-52
2022/04/10 01:24:09;;;;;;;;;16.80;16.20;;;;;10.63;47.73;101500.13;2071930;28;48115;-51
2022/04/10 01:25:10;;;;;;;;;15.80;14.00;;;;;10.63;47.59;101500.13;2096561;28;47572;-54
2022/04/10 01:26:10;;;;;;;;;17.00;16.75;;;;;10.62;47.92;101501.91;2101453;28;47545;-50
2022/04/10 01:27:10;;;;;;;;;15.50;15.50;;;;;10.62;47.79;101504.56;2104604;28;47745;-51
2022/04/10 01:28:12;;;;;;;;;16.50;16.50;;;;;10.63;47.97;101505.44;2086617;28;48343;-52
2022/04/10 01:29:14;;;;;;;;;21.00;20.80;;;;;10.61;47.98;101497.50;2086365;28;47914;-53
2022/04/10 01:30:15;;;;;;;;;19.60;18.60;;;;;10.60;47.82;101486.00;2104997;28;47547;-51
2022/04/10 01:31:15;;;;;;;;;17.20;16.20;;;;;10.61;47.86;101487.75;2104885;28;47514;-52
2022/04/10 01:32:15;;;;;;;;;19.75;19.25;;;;;10.61;47.94;101495.72;2104460;28;48037;-54
2022/04/10 01:33:16;;;;;;;;;24.00;24.00;;;;;10.64;47.92;101499.25;2104898;28;47818;-49
2022/04/10 01:34:17;;;;;;;;;19.00;19.00;;;;;10.63;47.84;101492.19;2105093;28;48100;-52
2022/04/10 01:35:18;;;;;;;;;24.50;20.50;;;;;10.63;47.87;101498.38;2100539;28;48236;-53
2022/04/10 01:36:19;;;;;;;;;20.80;20.80;;;;;10.62;47.98;101499.25;2104563;28;47609;-52
2022/04/10 01:37:21;;;;;;;;;19.60;18.40;;;;;10.62;48.02;101491.28;2100717;28;47756;-52
2022/04/10 01:38:22;;;;;;;;;18.00;18.00;;;;;10.61;47.86;101493.06;2096506;28;48018;-51
2022/04/10 01:39:22;;;;;;;;;20.75;20.75;;;;;10.61;47.95;101493.06;2096290;28;47564;-53
2022/04/10 01:40:23;;;;;;;;;20.00;18.25;;;;;10.60;47.86;101496.63;2080555;28;47469;-52
2022/04/10 01:41:25;;;;;;;;;23.50;23.50;;;;;10.58;47.73;101495.75;2087047;28;47567;-49
2022/04/10 01:42:25;;;;;;;;;19.60;17.20;;;;;10.59;48.13;101491.34;2104451;28;47502;-50
2022/04/10 01:43:26;;;;;;;;;21.75;21.75;;;;;10.57;48.23;101495.78;2106398;27;47440;-53
2022/04/10 01:44:26;;;;;;;;;19.00;18.25;;;;;10.54;48.09;101490.47;2104692;28;47599;-54
2022/04/10 01:45:27;;;;;;;;;19.25;17.50;;;;;10.54;48.34;101495.78;2095437;28;47410;-53
2022/04/10 01:46:29;;;;;;;;;19.25;19.00;;;;;10.53;48.27;101492.25;2086709;28;47817;-52
2022/04/10 01:47:29;;;;;;;;;21.20;19.20;;;;;10.51;48.17;101483.44;2095155;28;47994;-53
2022/04/10 01:48:29;;;;;;;;;18.25;17.00;;;;;10.52;48.40;101489.63;2104428;28;47610;-52
2022/04/10 01:49:30;;;;;;;;;19.50;17.00;;;;;10.50;48.06;101486.97;2109148;27;46324;-51
2022/04/10 01:50:30;;;;;;;;;19.25;19.25;;;;;10.50;48.34;101488.75;2107192;27;47897;-52
2022/04/10 01:51:31;;;;;;;;;20.50;19.75;;;;;10.49;48.25;101484.34;2104875;28;47418;-53
2022/04/10 01:52:32;;;;;;;;;20.00;20.00;;;;;10.48;48.12;101491.44;2103896;28;47449;-54
2022/04/10 01:53:34;;;;;;;;;19.50;18.75;;;;;10.47;48.25;101489.66;2104538;28;47800;-52
2022/04/10 01:54:34;;;;;;;;;19.40;18.60;;;;;10.46;48.39;101482.59;2104049;28;47356;-51
2022/04/10 01:55:35;;;;;;;;;16.00;15.75;;;;;10.45;48.59;101483.50;2078515;28;47387;-54
2022/04/10 01:56:35;;;;;;;;;16.75;15.75;;;;;10.45;48.19;101486.16;2078079;28;47045;-53
2022/04/10 01:57:36;;;;;;;;;18.75;16.75;;;;;10.44;48.52;101479.09;2096042;28;47155;-54
2022/04/10 01:58:41;;;;;;;;;21.50;19.00;;;;;10.44;48.46;101481.75;2084270;28;47703;-51
2022/04/10 01:59:41;;;;;;;;;21.40;19.40;;;;;10.44;48.47;101478.22;2086802;28;47908;-53
2022/04/10 02:00:42;;;;;;;;;20.50;20.50;;;;;10.44;48.55;101476.44;2104253;28;47530;-52
2022/04/10 02:01:42;;;;;;;;;16.50;16.50;;;;;10.44;48.46;101475.56;2104681;28;48197;-52
2022/04/10 02:02:43;;;;;;;;;21.25;19.50;;;;;10.43;48.57;101476.44;2104555;27;47673;-53
2022/04/10 02:03:46;;;;;;;;;17.00;16.25;;;;;10.43;48.91;101476.44;2108361;27;47836;-53
2022/04/10 02:04:46;;;;;;;;;24.80;21.60;;;;;10.42;48.88;101480.00;2108865;27;47331;-51
2022/04/10 02:05:48;;;;;;;;;21.50;21.50;;;;;10.41;49.00;101480.88;2112397;27;47573;-51
2022/04/10 02:06:48;;;;;;;;;24.60;23.00;;;;;10.41;48.75;101483.53;2112881;27;47593;-54
2022/04/10 02:07:49;;;;;;;;;21.25;21.00;;;;;10.40;48.96;101484.41;2110783;27;47715;-52
2022/04/10 02:08:49;;;;;;;;;21.75;18.75;;;;;10.39;48.56;101485.31;2108818;27;47706;-52
2022/04/10 02:09:50;;;;;;;;;20.00;18.75;;;;;10.38;48.79;101476.47;2102989;27;47440;-52
2022/04/10 02:10:50;;;;;;;;;20.75;20.75;;;;;10.38;48.78;101480.91;2112960;27;47391;-52
2022/04/10 02:11:51;;;;;;;;;21.00;19.75;;;;;10.37;48.78;101474.72;2108586;27;48306;-53
2022/04/10 02:12:51;;;;;;;;;21.25;20.25;;;;;10.36;48.66;101475.63;2103282;28;47349;-54
2022/04/10 02:13:52;;;;;;;;;21.25;20.75;;;;;10.37;48.62;101473.84;2105068;27;47098;-53
2022/04/10 02:14:52;;;;;;;;;20.60;19.60;;;;;10.36;48.88;101480.91;2107434;27;47510;-53
2022/04/10 02:15:53;;;;;;;;;19.00;19.00;;;;;10.36;48.77;101485.34;2113301;27;47429;-52
2022/04/10 02:16:53;;;;;;;;;24.75;20.50;;;;;10.35;49.05;101478.28;2104670;27;47304;-53
2022/04/10 02:17:53;;;;;;;;;20.75;18.50;;;;;10.34;49.08;101484.47;2103310;28;47795;-54
2022/04/10 02:18:54;;;;;;;;;23.50;21.25;;;;;10.31;49.01;101475.66;2104057;28;47543;-51
2022/04/10 02:19:54;;;;;;;;;21.25;21.25;;;;;10.31;49.03;101482.75;2101683;27;47559;-51
2022/04/10 02:20:55;;;;;;;;;23.50;21.75;;;;;10.30;48.77;101476.56;2104257;28;47872;-53
2022/04/10 02:21:57;;;;;;;;;20.50;19.75;;;;;10.30;48.91;101481.88;2105493;27;47308;-52
2022/04/10 02:22:57;;;;;;;;;20.60;20.40;;;;;10.29;48.78;101488.06;2105532;27;47876;-50
2022/04/10 02:23:58;;;;;;;;;22.25;22.25;;;;;10.29;48.84;101488.06;2077979;28;48174;-52
2022/04/10 02:24:59;;;;;;;;;23.50;23.50;;;;;10.29;48.83;101484.50;2080454;28;47875;-54
2022/04/10 02:25:59;;;;;;;;;23.50;23.50;;;;;10.28;49.18;101483.63;2096129;28;47778;-52
2022/04/10 02:27:00;;;;;;;;;26.00;24.00;;;;;10.27;48.92;101481.88;2103457;28;47512;-49
2022/04/10 02:28:00;;;;;;;;;23.75;21.00;;;;;10.26;48.88;101485.41;2113061;27;48037;-54
2022/04/10 02:29:01;;;;;;;;;23.75;22.75;;;;;10.26;48.92;101479.22;2103976;28;47638;-53
2022/04/10 02:30:03;;;;;;;;;21.60;21.60;;;;;10.26;48.93;101480.09;2087494;28;48041;-53
2022/04/10 02:31:04;;;;;;;;;21.40;20.20;;;;;10.26;49.39;101489.84;2087728;28;47843;-52
2022/04/10 02:32:05;;;;;;;;;21.50;19.50;;;;;10.26;49.04;101488.06;2095436;28;47609;-54
2022/04/10 02:33:05;;;;;;;;;22.40;21.40;;;;;10.26;49.15;101495.16;2111441;27;47525;-53
2022/04/10 02:34:05;;;;;;;;;18.50;18.50;;;;;10.26;49.30;101484.53;2111979;27;46643;-51
2022/04/10 02:35:07;;;;;;;;;21.00;21.00;;;;;10.24;49.05;101489.84;2104557;28;47674;-55
2022/04/10 02:36:07;;;;;;;;;21.20;21.20;;;;;10.23;49.15;101488.09;2105495;27;48011;-53
2022/04/10 02:37:08;;;;;;;;;21.25;20.00;;;;;10.23;49.39;101482.78;2104510;27;47485;-54
2022/04/10 02:38:09;;;;;;;;;23.75;22.50;;;;;10.22;49.31;101491.66;2104780;27;48030;-53
2022/04/10 02:39:09;;;;;;;;;25.50;23.25;;;;;10.21;48.88;101483.66;2105708;27;47743;-51
2022/04/10 02:40:10;;;;;;;;;25.00;22.00;;;;;10.20;49.19;101485.44;2103973;28;47330;-51
2022/04/10 02:41:11;;;;;;;;;22.60;22.00;;;;;10.21;49.42;101491.63;2086922;28;47624;-52
2022/04/10 02:42:11;;;;;;;;;24.25;22.50;;;;;10.20;49.38;101493.41;2087048;28;47553;-51
2022/04/10 02:43:13;;;;;;;;;25.00;24.50;;;;;10.21;49.51;101488.97;2104470;27;47909;-50
2022/04/10 02:44:14;;;;;;;;;22.60;21.80;;;;;10.21;49.05;101483.66;2088377;28;48210;-50
2022/04/10 02:45:14;;;;;;;;;23.50;23.50;;;;;10.22;49.07;101494.28;2087184;27;47385;-49
2022/04/10 02:46:15;;;;;;;;;24.75;22.75;;;;;10.22;49.33;101496.06;2104166;27;47988;-54
2022/04/10 02:47:15;;;;;;;;;19.00;19.00;;;;;10.22;49.20;101496.94;2108207;27;47477;-52
2022/04/10 02:48:16;;;;;;;;;23.50;23.25;;;;;10.22;49.07;101499.59;2112570;27;47648;-54
2022/04/10 02:49:16;;;;;;;;;23.75;23.00;;;;;10.22;49.27;101496.06;2106025;27;47570;-49
2022/04/10 02:50:17;;;;;;;;;26.75;24.00;;;;;10.22;48.92;101496.94;2105061;27;47739;-51
2022/04/10 02:51:17;;;;;;;;;22.25;21.00;;;;;10.21;49.20;101491.63;2103954;27;47808;-50
2022/04/10 02:52:18;;;;;;;;;23.75;23.00;;;;;10.21;49.13;101488.97;2104493;28;47620;-53
2022/04/10 02:53:18;;;;;;;;;26.75;25.75;;;;;10.20;48.95;101496.06;2108233;27;47232;-51
2022/04/10 02:54:19;;;;;;;;;26.75;26.75;;;;;10.20;49.08;101495.19;2104524;28;47619;-51
2022/04/10 02:55:19;;;;;;;;;25.00;22.50;;;;;10.18;48.94;101492.53;2108059;27;47648;-53
2022/04/10 02:56:20;;;;;;;;;21.25;21.25;;;;;10.18;49.16;101487.22;2106551;27;47739;-53
2022/04/10 02:57:20;;;;;;;;;28.00;23.75;;;;;10.17;49.12;101496.09;2079066;28;47734;-52
2022/04/10 02:58:20;;;;;;;;;29.50;25.75;;;;;10.16;48.94;101496.94;2082173;28;48173;-51
2022/04/10 02:59:21;;;;;;;;;26.25;26.25;;;;;10.15;49.21;101500.50;2095834;28;47706;-53
2022/04/10 03:00:21;;;;;;;;;27.75;26.00;;;;;10.13;49.23;101496.09;2097314;28;48091;-53
2022/04/10 03:01:22;;;;;;;;;26.50;24.50;;;;;10.11;49.08;101496.13;2108166;27;47307;-52
2022/04/10 03:02:22;;;;;;;;;23.75;22.75;;;;;10.08;49.02;101496.16;2106455;27;47797;-50
2022/04/10 03:03:22;;;;;;;;;23.75;23.75;;;;;10.06;49.32;101495.28;2111342;27;47422;-53
2022/04/10 03:04:23;;;;;;;;;31.00;30.50;;;;;10.06;49.05;101497.94;2112651;27;47617;-51
2022/04/10 03:05:23;;;;;;;;;30.75;27.50;;;;;10.05;49.35;101490.00;2094577;28;47788;-52
2022/04/10 03:06:23;;;;;;;;;28.75;27.25;;;;;10.06;49.32;101491.75;2094329;28;47948;-53
2022/04/10 03:07:24;;;;;;;;;30.75;29.50;;;;;10.03;49.40;101489.97;2112736;27;47368;-53
2022/04/10 03:08:24;;;;;;;;;25.50;24.75;;;;;10.04;49.20;101494.41;2113112;27;47376;-52
2022/04/10 03:09:25;;;;;;;;;31.50;28.75;;;;;10.04;49.48;101494.41;2112331;27;47549;-51
2022/04/10 03:10:25;;;;;;;;;28.00;26.00;;;;;10.05;49.32;101490.88;2111427;27;47925;-52
2022/04/10 03:11:26;;;;;;;;;29.25;29.25;;;;;10.05;49.61;101496.19;2104380;27;47435;-52
2022/04/10 03:12:26;;;;;;;;;34.75;31.25;;;;;10.05;49.68;101501.47;2110770;27;48488;-52
2022/04/10 03:13:28;;;;;;;;;30.00;29.00;;;;;10.04;49.61;101494.41;2112198;27;47567;-49
2022/04/10 03:14:28;;;;;;;;;35.40;33.40;;;;;10.05;49.73;101488.22;2113668;27;48239;-53
2022/04/10 03:15:29;;;;;;;;;28.25;28.25;;;;;10.06;49.82;101495.28;2113503;27;47378;-51
2022/04/10 03:16:29;;;;;;;;;32.50;32.50;;;;;10.05;49.84;101493.53;2114714;27;47164;-53
2022/04/10 03:17:30;;;;;;;;;29.50;29.00;;;;;10.06;49.67;101492.63;2109431;27;47551;-54
2022/04/10 03:18:30;;;;;;;;;29.50;28.00;;;;;10.06;49.90;101497.06;2114369;27;47461;-54
2022/04/10 03:19:31;;;;;;;;;27.75;23.25;;;;;10.05;50.03;101498.81;2113677;27;47804;-49
2022/04/10 03:20:31;;;;;;;;;28.75;28.50;;;;;10.05;49.91;101495.28;2113526;27;47790;-53
2022/04/10 03:21:31;;;;;;;;;31.50;30.00;;;;;10.03;49.93;101489.97;2114054;27;47520;-52
2022/04/10 03:22:32;;;;;;;;;28.50;28.50;;;;;10.03;50.02;101503.22;2104504;27;47171;-51
2022/04/10 03:23:32;;;;;;;;;34.50;31.75;;;;;10.01;50.11;101505.03;2104707;28;47265;-53
2022/04/10 03:24:32;;;;;;;;;34.50;32.00;;;;;10.01;50.09;101497.94;2109120;27;47786;-52
2022/04/10 03:25:33;;;;;;;;;28.50;26.75;;;;;9.99;50.18;101499.72;2105268;28;47948;-54
2022/04/10 03:26:33;;;;;;;;;34.75;31.00;;;;;10.01;50.09;101505.03;2113678;27;47556;-51
2022/04/10 03:27:34;;;;;;;;;33.00;32.00;;;;;10.00;50.34;101495.31;2109800;27;48186;-53
2022/04/10 03:28:34;;;;;;;;;31.75;31.75;;;;;10.00;50.32;101497.97;2111573;27;47441;-49
2022/04/10 03:29:35;;;;;;;;;32.25;32.00;;;;;10.00;50.42;101503.25;2105559;28;48424;-52
2022/04/10 03:30:35;;;;;;;;;27.25;26.75;;;;;9.99;50.59;101496.19;2107469;27;46881;-50
2022/04/10 03:31:36;;;;;;;;;30.00;30.00;;;;;9.98;50.69;101505.06;2112944;27;47665;-54
2022/04/10 03:32:36;;;;;;;;;32.75;32.25;;;;;9.96;50.67;101505.06;2110637;27;47792;-53
2022/04/10 03:33:36;;;;;;;;;31.50;30.50;;;;;9.95;50.81;101503.31;2109886;27;47763;-49
2022/04/10 03:34:37;;;;;;;;;33.25;32.00;;;;;9.93;50.59;101501.56;2105330;27;47512;-54
2022/04/10 03:35:37;;;;;;;;;32.00;31.75;;;;;9.91;50.90;101512.19;2108587;27;47296;-53
2022/04/10 03:36:38;;;;;;;;;32.75;31.75;;;;;9.89;51.04;101503.31;2110852;27;46586;-48
2022/04/10 03:37:38;;;;;;;;;31.50;31.50;;;;;9.88;51.05;101504.22;2112036;27;47797;-52
2022/04/10 03:38:39;;;;;;;;;33.25;32.25;;;;;9.89;50.81;101510.41;2109177;27;47256;-51
2022/04/10 03:39:39;;;;;;;;;34.50;30.50;;;;;9.88;51.15;101508.63;2113264;27;48086;-50
2022/04/10 03:40:40;;;;;;;;;31.75;29.75;;;;;9.87;50.90;101501.59;2110621;27;47086;-52
2022/04/10 03:41:40;;;;;;;;;31.50;30.75;;;;;9.86;51.03;101499.81;2109380;27;47645;-50
2022/04/10 03:42:41;;;;;;;;;32.75;29.75;;;;;9.84;50.87;101499.84;2113596;27;48051;-53
2022/04/10 03:43:42;;;;;;;;;30.00;29.25;;;;;9.84;51.23;101505.13;2109016;27;47425;-51
2022/04/10 03:44:42;;;;;;;;;33.40;31.20;;;;;9.85;50.84;101503.38;2113796;27;47676;-51
2022/04/10 03:45:43;;;;;;;;;35.50;33.25;;;;;9.83;51.21;101499.84;2102955;28;46567;-52
2022/04/10 03:46:43;;;;;;;;;32.25;31.75;;;;;9.82;51.24;101504.28;2103796;28;46831;-52
2022/04/10 03:47:44;;;;;;;;;31.00;31.00;;;;;9.81;51.17;101502.50;2105624;28;47579;-53
2022/04/10 03:48:44;;;;;;;;;31.00;28.75;;;;;9.81;51.21;101502.50;2104986;28;47771;-50
2022/04/10 03:49:44;;;;;;;;;32.00;31.50;;;;;9.81;51.28;101498.97;2100163;28;47839;-52
2022/04/10 03:50:45;;;;;;;;;29.25;27.25;;;;;9.81;51.25;101507.81;2094356;28;47764;-50
2022/04/10 03:51:45;;;;;;;;;32.75;32.00;;;;;9.82;51.29;101508.69;2089998;28;47361;-52
2022/04/10 03:52:46;;;;;;;;;32.50;30.25;;;;;9.81;51.26;101507.81;2113839;27;47752;-52
2022/04/10 03:53:46;;;;;;;;;36.00;34.25;;;;;9.81;51.39;101513.13;2093904;28;47583;-53
2022/04/10 03:54:46;;;;;;;;;29.00;28.50;;;;;9.81;51.48;101504.28;2093908;28;47737;-52
2022/04/10 03:55:47;;;;;;;;;32.25;32.00;;;;;9.81;51.43;101506.94;2113963;27;47291;-51
2022/04/10 03:56:48;;;;;;;;;22.00;21.25;;;;;9.80;51.13;101508.72;2111954;27;48316;-51
2022/04/10 03:57:48;;;;;;;;;35.50;33.25;;;;;9.79;51.24;101495.47;2094452;28;47701;-52
2022/04/10 03:58:48;;;;;;;;;30.25;27.50;;;;;9.79;51.32;101504.31;2095702;28;47410;-53
2022/04/10 03:59:49;;;;;;;;;30.50;30.00;;;;;9.78;51.76;101497.19;2108682;27;48331;-52
2022/04/10 04:00:49;;;;;;;;;35.00;32.25;;;;;9.79;51.41;101496.34;2101700;27;47390;-49
2022/04/10 04:01:50;;;;;;;;;29.00;29.00;;;;;9.79;51.39;101504.31;2104847;27;47520;-54
2022/04/10 04:02:51;;;;;;;;;30.50;28.00;;;;;9.80;51.40;101499.88;2111049;27;47579;-53
2022/04/10 04:03:51;;;;;;;;;33.00;29.75;;;;;9.79;51.50;101500.78;2108875;27;47631;-52
2022/04/10 04:04:52;;;;;;;;;29.00;28.25;;;;;9.78;51.56;101505.16;2107501;27;47509;-54
2022/04/10 04:05:53;;;;;;;;;36.25;32.75;;;;;9.80;51.52;101505.19;2112540;27;47212;-53
2022/04/10 04:06:53;;;;;;;;;40.25;35.25;;;;;9.80;51.70;101505.19;2113414;27;47533;-49
2022/04/10 04:07:54;;;;;;;;;35.50;29.75;;;;;9.78;51.80;101504.28;2108254;27;47668;-52
2022/04/10 04:08:54;;;;;;;;;35.00;33.75;;;;;9.77;51.79;101505.16;2108137;27;47192;-54
2022/04/10 04:09:55;;;;;;;;;34.25;33.50;;;;;9.76;51.67;101506.94;2097729;28;48100;-50
2022/04/10 04:10:56;;;;;;;;;32.25;31.50;;;;;9.77;51.55;101510.47;2101721;28;47911;-50
2022/04/10 04:11:56;;;;;;;;;34.00;32.50;;;;;9.76;51.58;101506.06;2108181;27;47672;-51
2022/04/10 04:12:56;;;;;;;;;40.50;36.50;;;;;9.76;51.74;101499.00;2109457;27;47999;-50
2022/04/10 04:13:57;;;;;;;;;36.75;33.50;;;;;9.76;51.80;101499.00;2105907;27;45518;-51
2022/04/10 04:14:57;;;;;;;;;37.25;33.75;;;;;9.74;51.73;101492.81;2089670;28;47283;-51
2022/04/10 04:15:57;;;;;;;;;30.50;29.50;;;;;9.74;51.62;101496.34;2091547;28;47591;-54
2022/04/10 04:16:59;;;;;;;;;34.75;33.75;;;;;9.74;51.84;101496.34;2105119;28;47667;-53
2022/04/10 04:17:59;;;;;;;;;35.00;32.60;;;;;9.74;51.89;101490.16;2106370;27;47725;-51
2022/04/10 04:19:00;;;;;;;;;36.00;33.25;;;;;9.72;51.65;101495.50;2111116;27;47600;-51
2022/04/10 04:20:03;;;;;;;;;37.75;34.25;;;;;9.75;51.89;101494.59;2109532;27;47508;-53
2022/04/10 04:21:04;;;;;;;;;38.80;35.60;;;;;9.73;51.77;101493.72;2098504;28;47930;-52
2022/04/10 04:22:05;;;;;;;;;34.50;33.25;;;;;9.72;52.00;101491.97;2103249;28;46798;-54
2022/04/10 04:23:05;;;;;;;;;36.50;34.50;;;;;9.72;51.68;101498.13;2104267;28;46956;-52
2022/04/10 04:24:06;;;;;;;;;36.75;34.00;;;;;9.73;51.78;101496.38;2105000;28;47750;-54
2022/04/10 04:25:06;;;;;;;;;36.50;34.25;;;;;9.72;51.91;101491.97;2105429;27;48111;-54
2022/04/10 04:26:07;;;;;;;;;42.00;36.75;;;;;9.72;51.73;101495.50;2106380;27;47755;-53
2022/04/10 04:27:07;;;;;;;;;38.25;35.25;;;;;9.72;51.69;101491.97;2101280;28;47473;-52
2022/04/10 04:28:08;;;;;;;;;36.25;33.00;;;;;9.72;51.88;101503.44;2101051;28;46797;-49
2022/04/10 04:29:08;;;;;;;;;33.00;29.25;;;;;9.72;51.84;101497.25;2107107;27;47678;-53
2022/04/10 04:30:09;;;;;;;;;32.50;29.75;;;;;9.71;51.95;101503.44;2112470;27;48030;-53
2022/04/10 04:31:09;;;;;;;;;40.50;35.00;;;;;9.68;51.87;101503.47;2090332;28;47648;-53
2022/04/10 04:32:10;;;;;;;;;37.50;34.50;;;;;9.67;51.87;101504.38;2090555;28;47881;-54
2022/04/10 04:33:10;;;;;;;;;36.50;32.50;;;;;9.66;52.01;101505.25;2109150;27;47820;-52
2022/04/10 04:34:13;;;;;;;;;38.25;35.00;;;;;9.65;52.08;101500.81;2106871;27;47076;-53
2022/04/10 04:35:15;;;;;;;;;38.60;35.60;;;;;9.64;52.22;101502.59;2106986;27;47618;-52
2022/04/10 04:36:16;;;;;;;;;36.00;34.40;;;;;9.64;52.04;101504.34;2110899;27;47855;-50
2022/04/10 04:37:16;;;;;;;;;36.20;33.60;;;;;9.64;52.30;101505.22;2103451;27;47642;-53
2022/04/10 04:38:17;;;;;;;;;37.00;33.25;;;;;9.63;52.06;101506.13;2105241;27;47834;-51